Time;durP1;ratioP1;P1;durP2;ratioP2;P2;SDS_P1;SDS_P2;PMS_P1;PMS_P2;Temp;Humidity;BMP_temperature;BMP_pressure;BME280_temperature;BME280_humidity;BME280_pressure;Samples;Min_cycle;Max_cycle;Signal;HPM_P1;HPM_P2
2023/04/07 00:00:57;;;;;;;;;54.33;41.67;;;;;0.19;100.00;98369.25;4802968;28;103349;-71
2023/04/07 00:03:24;;;;;;;;;55.00;45.00;;;;;0.14;100.00;98374.16;4803103;28;101886;-71
2023/04/07 00:05:57;;;;;;;;;38.00;35.00;;;;;0.18;100.00;98368.41;4793036;28;105896;-71
2023/04/07 00:08:41;;;;;;;;;53.33;42.00;;;;;0.13;100.00;98364.53;4792658;29;103351;-72
2023/04/07 00:11:26;;;;;;;;;48.33;40.33;;;;;0.19;100.00;98377.22;4801560;28;101871;-71
2023/04/07 00:14:12;;;;;;;;;55.00;44.67;;;;;0.14;100.00;98366.19;4796878;29;102866;-72
2023/04/07 00:16:58;;;;;;;;;46.00;38.00;;;;;0.15;100.00;98352.75;4798845;29;103087;-71
2023/04/07 00:19:42;;;;;;;;;42.00;34.33;;;;;0.21;100.00;98367.31;4804705;28;102320;-71
2023/04/07 00:22:33;;;;;;;;;42.33;38.67;;;;;0.20;100.00;98365.63;4805671;28;103597;-71
2023/04/07 00:25:09;;;;;;;;;56.33;44.00;;;;;0.10;100.00;98355.00;4798223;29;102250;-71
2023/04/07 00:27:36;;;;;;;;;60.67;45.33;;;;;0.05;100.00;98349.25;4806206;29;104892;-71
2023/04/07 00:30:04;;;;;;;;;46.00;40.67;;;;;0.15;100.00;98357.22;4808985;28;103093;-72
2023/04/07 00:32:31;;;;;;;;;45.00;38.67;;;;;0.12;100.00;98346.88;4803092;28;101888;-71
2023/04/07 00:35:00;;;;;;;;;42.00;27.33;;;;;-0.04;100.00;98324.38;4815870;28;102357;-70
2023/04/07 00:37:28;;;;;;;;;48.33;42.33;;;;;0.13;100.00;98354.72;4800748;29;103568;-71
2023/04/07 00:39:56;;;;;;;;;48.67;41.00;;;;;0.11;100.00;98342.53;4804372;28;102507;-70
2023/04/07 00:42:24;;;;;;;;;50.00;40.00;;;;;0.02;100.00;98333.59;4800541;29;103587;-71
2023/04/07 00:44:51;;;;;;;;;42.33;34.00;;;;;0.08;100.00;98329.56;4797511;29;102101;-70
2023/04/07 00:47:19;;;;;;;;;44.33;38.67;;;;;0.13;100.00;98343.25;4799735;28;104045;-70
2023/04/07 00:49:46;;;;;;;;;40.00;31.00;;;;;0.23;100.00;98344.06;4817699;28;103484;-70
2023/04/07 00:52:14;;;;;;;;;43.67;34.67;;;;;0.07;100.00;98322.56;4799867;28;102825;-71
2023/04/07 00:54:41;;;;;;;;;48.00;37.67;;;;;0.13;100.00;98343.25;4793713;28;102919;-71
2023/04/07 00:57:08;;;;;;;;;38.67;34.33;;;;;0.08;100.00;98334.88;4807200;28;104045;-70
2023/04/07 00:59:35;;;;;;;;;48.00;37.67;;;;;0.10;100.00;98344.38;4806652;28;102271;-70
2023/04/07 01:02:20;;;;;;;;;45.33;38.00;;;;;0.13;100.00;98328.16;4795184;28;102459;-71
2023/04/07 01:04:57;;;;;;;;;42.33;37.00;;;;;0.15;100.00;98330.66;4798670;29;102283;-71
2023/04/07 01:08:07;;;;;;;;;52.33;40.33;;;;;0.13;100.00;98325.50;4803542;29;108674;-71
2023/04/07 01:11:14;;;;;;;;;43.67;35.00;;;;;0.10;100.00;98325.75;4801390;28;102404;-71
2023/04/07 01:14:05;;;;;;;;;40.67;34.33;;;;;-0.08;100.00;98287.59;4791508;29;102376;-70
2023/04/07 01:16:57;;;;;;;;;26.33;22.00;;;;;0.26;100.00;98328.69;4804147;28;102178;-70
2023/04/07 01:19:57;;;;;;;;;37.33;31.33;;;;;0.16;100.00;98311.06;4797683;28;108891;-70
2023/04/07 01:22:48;;;;;;;;;38.67;34.67;;;;;0.21;100.00;98314.97;4782846;29;102779;-70
2023/04/07 01:25:47;;;;;;;;;40.67;34.33;;;;;0.28;100.00;98328.53;4817684;29;103277;-71
2023/04/07 01:28:40;;;;;;;;;47.33;41.00;;;;;0.24;100.00;98329.78;4801270;28;102228;-71
2023/04/07 01:31:09;;;;;;;;;37.00;33.67;;;;;0.18;100.00;98320.56;4800847;28;108085;-70
2023/04/07 01:33:38;;;;;;;;;39.67;33.33;;;;;0.28;100.00;98326.69;4801266;29;102703;-70
2023/04/07 01:36:07;;;;;;;;;56.67;42.33;;;;;0.14;100.00;98315.69;4807438;28;102670;-71
2023/04/07 01:38:36;;;;;;;;;60.00;44.67;;;;;0.14;100.00;98318.34;4800721;29;102639;-71
2023/04/07 01:41:05;;;;;;;;;61.33;48.67;;;;;0.10;100.00;98312.47;4802690;28;104015;-70
2023/04/07 01:43:32;;;;;;;;;54.67;39.00;;;;;0.03;100.00;98310.53;4817906;29;102394;-70
2023/04/07 01:46:01;;;;;;;;;48.33;40.33;;;;;0.13;100.00;98314.03;4797888;28;102394;-71
2023/04/07 01:48:29;;;;;;;;;47.33;40.67;;;;;0.13;100.00;98322.84;4803876;28;102384;-71
2023/04/07 01:50:57;;;;;;;;;50.67;39.00;;;;;0.15;100.00;98317.34;4803184;29;103740;-71
2023/04/07 01:53:25;;;;;;;;;52.00;41.00;;;;;0.12;100.00;98307.84;4805395;28;102676;-70
2023/04/07 01:55:53;;;;;;;;;45.33;39.00;;;;;0.12;100.00;98307.03;4798028;29;101929;-70
2023/04/07 01:58:20;;;;;;;;;48.67;37.67;;;;;0.13;100.00;98306.03;4801791;29;102046;-71
2023/04/07 02:00:48;;;;;;;;;45.00;37.67;;;;;0.05;100.00;98304.06;4776616;29;104343;-71
2023/04/07 02:03:24;;;;;;;;;45.00;34.33;;;;;0.18;100.00;98317.09;4802197;29;102400;-71
2023/04/07 02:05:55;;;;;;;;;43.33;39.33;;;;;0.21;100.00;98308.81;4803179;28;102196;-71
2023/04/07 02:08:26;;;;;;;;;42.67;34.00;;;;;0.23;100.00;98313.00;4805365;28;102088;-71
2023/04/07 02:10:55;;;;;;;;;43.67;33.33;;;;;0.10;100.00;98295.69;4800378;29;108584;-70
2023/04/07 02:13:23;;;;;;;;;47.67;34.33;;;;;0.17;100.00;98312.75;4802945;29;103371;-71
2023/04/07 02:15:53;;;;;;;;;57.67;37.00;;;;;0.18;100.00;98322.41;4794596;29;102937;-71
2023/04/07 02:18:22;;;;;;;;;45.33;36.00;;;;;0.20;100.00;98317.78;4802010;28;102054;-70
2023/04/07 02:20:51;;;;;;;;;57.67;43.00;;;;;0.15;100.00;98304.06;4801343;29;104273;-71
2023/04/07 02:23:19;;;;;;;;;50.67;34.33;;;;;0.13;100.00;98306.88;4799761;29;102244;-70
2023/04/07 02:25:46;;;;;;;;;44.33;34.00;;;;;0.11;100.00;98308.00;4805195;28;102194;-71
2023/04/07 02:28:13;;;;;;;;;57.67;41.00;;;;;0.15;100.00;98314.69;4797652;29;102141;-70
2023/04/07 02:30:40;;;;;;;;;41.33;34.00;;;;;0.13;100.00;98314.03;4801320;28;104119;-70
2023/04/07 02:33:07;;;;;;;;;49.33;39.00;;;;;0.04;100.00;98293.63;4800532;29;106981;-71
2023/04/07 02:35:34;;;;;;;;;48.00;37.00;;;;;0.13;100.00;98317.53;4795873;28;102642;-71
2023/04/07 02:38:01;;;;;;;;;37.33;35.33;;;;;0.14;100.00;98307.69;4804287;29;102055;-70
2023/04/07 02:40:29;;;;;;;;;40.67;33.67;;;;;0.08;100.00;98293.19;4800528;29;104099;-71
2023/04/07 02:42:56;;;;;;;;;39.00;30.00;;;;;0.18;100.00;98309.13;4808085;28;102292;-71
2023/04/07 02:45:23;;;;;;;;;45.00;34.67;;;;;0.21;100.00;98311.47;4801337;28;102117;-71
2023/04/07 02:47:50;;;;;;;;;50.33;41.00;;;;;0.10;100.00;98301.84;4796700;28;102082;-70
2023/04/07 02:50:17;;;;;;;;;37.00;26.00;;;;;0.18;100.00;98303.81;4811361;28;105509;-70
2023/04/07 02:52:44;;;;;;;;;55.67;41.00;;;;;0.10;100.00;98298.34;4805763;28;102373;-70
2023/04/07 02:55:11;;;;;;;;;52.33;38.67;;;;;0.02;100.00;98282.28;4803559;28;102895;-70
2023/04/07 02:57:38;;;;;;;;;53.67;41.67;;;;;0.05;100.00;98295.25;4777104;28;102182;-70
2023/04/07 03:00:07;;;;;;;;;50.00;41.00;;;;;0.02;100.00;98296.41;4800671;28;105197;-70
2023/04/07 03:02:34;;;;;;;;;49.67;38.67;;;;;-0.02;100.00;98292.34;4809484;28;102778;-70
2023/04/07 03:05:03;;;;;;;;;45.67;37.67;;;;;0.07;100.00;98285.34;4803729;28;102232;-69
2023/04/07 03:07:30;;;;;;;;;47.00;34.67;;;;;0.13;100.00;98290.09;4806635;28;102101;-70
2023/04/07 03:09:57;;;;;;;;;50.67;38.67;;;;;-0.01;100.00;98273.63;4806135;28;104195;-71
2023/04/07 03:12:25;;;;;;;;;43.33;37.00;;;;;0.11;100.00;98297.38;4806095;29;102943;-70
2023/04/07 03:14:52;;;;;;;;;46.67;36.67;;;;;0.09;100.00;98288.72;4805540;29;102200;-70
2023/04/07 03:17:19;;;;;;;;;34.00;30.33;;;;;0.17;100.00;98300.31;4823694;28;102325;-70
2023/04/07 03:19:46;;;;;;;;;45.00;36.33;;;;;0.15;100.00;98296.09;4797582;28;104031;-71
2023/04/07 03:22:13;;;;;;;;;26.67;25.67;;;;;-0.03;100.00;98249.00;4803634;28;102216;-70
2023/04/07 03:24:40;;;;;;;;;34.00;29.33;;;;;-0.08;100.00;98243.25;4800328;29;102242;-70
2023/04/07 03:27:07;;;;;;;;;41.00;31.00;;;;;0.21;100.00;98298.19;4808102;28;102193;-69
2023/04/07 03:29:34;;;;;;;;;37.33;30.33;;;;;0.03;100.00;98271.50;4801888;29;103994;-70
2023/04/07 03:32:01;;;;;;;;;32.00;31.67;;;;;0.20;100.00;98302.66;4801422;28;102167;-71
2023/04/07 03:34:28;;;;;;;;;54.33;35.67;;;;;0.11;100.00;98286.72;4803509;28;103032;-71
2023/04/07 03:36:55;;;;;;;;;50.00;32.33;;;;;0.11;100.00;98289.38;4805985;29;102869;-71
2023/04/07 03:39:22;;;;;;;;;41.00;32.67;;;;;0.18;100.00;98296.63;4803061;28;104348;-70
2023/04/07 03:41:49;;;;;;;;;38.00;32.33;;;;;0.18;100.00;98293.16;4802834;28;102295;-71
2023/04/07 03:44:16;;;;;;;;;39.67;33.33;;;;;0.20;100.00;98288.53;4816511;29;103242;-71
2023/04/07 03:46:44;;;;;;;;;34.00;27.67;;;;;0.18;100.00;98288.66;4802998;28;102214;-71
2023/04/07 03:49:11;;;;;;;;;51.00;40.67;;;;;0.22;100.00;98289.25;4810888;29;104019;-71
2023/04/07 03:51:38;;;;;;;;;35.33;31.33;;;;;0.22;100.00;98294.56;4798622;29;102453;-70
2023/04/07 03:54:05;;;;;;;;;36.67;30.00;;;;;0.19;100.00;98292.16;4805040;28;103608;-71
2023/04/07 03:56:32;;;;;;;;;25.33;15.67;;;;;0.20;100.00;98281.41;4805595;29;102456;-71
2023/04/07 03:58:59;;;;;;;;;60.33;41.33;;;;;0.21;100.00;98298.19;4804134;28;103979;-71
2023/04/07 04:01:26;;;;;;;;;42.67;31.00;;;;;0.14;100.00;98270.47;4802796;29;102222;-71
2023/04/07 04:03:53;;;;;;;;;16.33;7.33;;;;;0.33;100.00;98292.53;4802479;28;102531;-70
2023/04/07 04:06:21;;;;;;;;;39.67;29.00;;;;;0.15;100.00;98272.16;4806915;28;102744;-70
2023/04/07 04:08:48;;;;;;;;;47.67;38.67;;;;;0.18;100.00;98283.34;4795719;29;103993;-71
2023/04/07 04:11:15;;;;;;;;;41.33;34.00;;;;;0.11;100.00;98276.09;4806239;28;102115;-71
2023/04/07 04:13:42;;;;;;;;;55.00;41.00;;;;;0.19;100.00;98281.53;4801619;28;102047;-72
2023/04/07 04:16:09;;;;;;;;;50.00;38.00;;;;;0.16;100.00;98285.31;4802652;28;102198;-71
2023/04/07 04:18:40;;;;;;;;;38.67;30.67;;;;;0.23;100.00;98280.25;4805587;28;103208;-71
2023/04/07 04:21:07;;;;;;;;;51.67;41.67;;;;;0.12;100.00;98278.63;4799233;28;102993;-72
2023/04/07 04:23:34;;;;;;;;;38.00;34.00;;;;;0.17;100.00;98288.81;4809613;28;102968;-71
2023/04/07 04:26:02;;;;;;;;;42.67;36.67;;;;;0.16;100.00;98284.47;4801086;28;102515;-71
2023/04/07 04:28:30;;;;;;;;;49.33;38.00;;;;;0.13;100.00;98290.09;4818463;28;103967;-72
2023/04/07 04:30:57;;;;;;;;;41.33;33.33;;;;;0.15;100.00;98290.78;4805569;28;102281;-71
2023/04/07 04:33:24;;;;;;;;;62.00;44.00;;;;;0.17;100.00;98302.13;4797707;29;102353;-71
2023/04/07 04:35:51;;;;;;;;;45.67;37.33;;;;;0.16;100.00;98301.28;4809768;28;102426;-71
2023/04/07 04:38:18;;;;;;;;;45.33;38.00;;;;;0.13;100.00;98298.06;4802149;28;103591;-71
2023/04/07 04:40:45;;;;;;;;;46.67;38.33;;;;;0.17;100.00;98299.47;4798810;28;102357;-71
2023/04/07 04:43:12;;;;;;;;;49.00;35.33;;;;;0.22;100.00;98294.56;4827018;28;102213;-72
2023/04/07 04:45:39;;;;;;;;;51.00;32.67;;;;;0.18;100.00;98299.28;4801088;29;102177;-71
2023/04/07 04:48:06;;;;;;;;;44.33;31.00;;;;;0.15;100.00;98296.94;4807372;28;104039;-71
2023/04/07 04:50:35;;;;;;;;;48.00;37.00;;;;;0.18;100.00;98298.47;4799644;28;102305;-72
2023/04/07 04:53:02;;;;;;;;;44.67;37.00;;;;;0.18;100.00;98303.81;4813025;29;102084;-71
2023/04/07 04:55:29;;;;;;;;;40.00;31.33;;;;;0.22;100.00;98302.53;4806756;28;102026;-72
2023/04/07 04:57:56;;;;;;;;;38.33;32.33;;;;;0.17;100.00;98310.09;4802114;29;104031;-71
2023/04/07 05:00:24;;;;;;;;;24.67;23.00;;;;;0.13;100.00;98296.25;4797638;28;102521;-71
2023/04/07 05:02:51;;;;;;;;;36.00;29.67;;;;;0.20;100.00;98317.78;4801104;28;102392;-71
2023/04/07 05:05:18;;;;;;;;;45.67;36.67;;;;;0.18;100.00;98309.13;4800237;29;102017;-72
2023/04/07 05:07:45;;;;;;;;;34.67;31.00;;;;;0.15;100.00;98304.06;4805994;28;104208;-73
2023/04/07 05:10:13;;;;;;;;;35.33;31.33;;;;;0.14;100.00;98305.88;4813800;29;102350;-72
2023/04/07 05:12:40;;;;;;;;;37.67;32.67;;;;;0.19;100.00;98310.78;4803919;28;102390;-72
2023/04/07 05:15:07;;;;;;;;;40.00;30.00;;;;;0.17;100.00;98297.63;4801056;29;102147;-72
2023/04/07 05:17:35;;;;;;;;;41.00;33.67;;;;;0.17;100.00;98296.81;4803766;28;104070;-72
2023/04/07 05:20:03;;;;;;;;;42.00;35.67;;;;;0.16;100.00;98290.63;4806839;28;102602;-72
2023/04/07 05:22:30;;;;;;;;;33.33;29.00;;;;;0.13;100.00;98284.78;4804369;29;101893;-72
2023/04/07 05:24:57;;;;;;;;;41.67;30.33;;;;;0.19;100.00;98302.78;4806327;29;102042;-72
2023/04/07 05:27:25;;;;;;;;;42.33;30.67;;;;;0.21;100.00;98309.66;4803887;29;108516;-72
2023/04/07 05:29:52;;;;;;;;;46.67;34.00;;;;;0.21;100.00;98314.97;4797913;28;102774;-72
2023/04/07 05:32:19;;;;;;;;;34.33;30.33;;;;;0.26;100.00;98312.72;4801389;29;102191;-72
2023/04/07 05:34:46;;;;;;;;;36.33;27.33;;;;;0.26;100.00;98333.16;4804770;29;102079;-72
2023/04/07 05:37:13;;;;;;;;;39.67;32.33;;;;;0.31;100.00;98314.97;4800050;28;104489;-72
2023/04/07 05:39:40;;;;;;;;;35.00;28.33;;;;;0.26;100.00;98303.91;4802517;28;102873;-72
2023/04/07 05:42:07;;;;;;;;;41.00;30.33;;;;;0.28;100.00;98309.91;4796322;28;102554;-72
2023/04/07 05:44:34;;;;;;;;;40.00;35.33;;;;;0.27;100.00;98314.38;4808793;28;101981;-72
2023/04/07 05:47:01;;;;;;;;;39.67;27.00;;;;;0.29;100.00;98322.22;4814455;29;104059;-72
2023/04/07 05:49:28;;;;;;;;;33.00;30.00;;;;;0.36;100.00;98321.50;4802733;28;104067;-74
2023/04/07 05:51:55;;;;;;;;;41.67;36.33;;;;;0.35;100.00;98326.97;4804126;28;102426;-72
2023/04/07 05:54:22;;;;;;;;;48.33;40.33;;;;;0.32;100.00;98317.47;4800062;29;102487;-72
2023/04/07 05:56:49;;;;;;;;;40.00;28.67;;;;;0.32;100.00;98312.13;4806225;28;103817;-72
2023/04/07 05:59:16;;;;;;;;;48.00;35.33;;;;;0.29;100.00;98300.97;4807249;28;102130;-72
2023/04/07 06:01:43;;;;;;;;;38.33;30.33;;;;;0.31;100.00;98291.03;4800576;29;102724;-72
2023/04/07 06:04:11;;;;;;;;;45.67;33.67;;;;;0.32;100.00;98308.63;4800474;29;102594;-72
2023/04/07 06:06:38;;;;;;;;;42.00;34.33;;;;;0.26;100.00;98290.63;4796678;29;102924;-73
2023/04/07 06:09:05;;;;;;;;;40.33;33.33;;;;;0.40;100.00;98312.28;4803028;28;102366;-70
2023/04/07 06:11:33;;;;;;;;;24.33;21.67;;;;;0.53;100.00;98309.28;4802818;29;102192;-72
2023/04/07 06:14:00;;;;;;;;;46.00;34.67;;;;;0.32;100.00;98292.69;4802001;29;102197;-73
2023/04/07 06:16:27;;;;;;;;;33.33;27.33;;;;;0.43;100.00;98289.88;4809300;28;104016;-73
2023/04/07 06:18:55;;;;;;;;;39.33;31.67;;;;;0.50;100.00;98296.25;4799245;28;102174;-73
2023/04/07 06:21:22;;;;;;;;;13.00;7.33;;;;;0.55;100.00;98295.81;4797656;29;102379;-73
2023/04/07 06:23:49;;;;;;;;;30.33;24.00;;;;;0.48;100.00;98290.28;4803770;28;102448;-72
2023/04/07 06:26:17;;;;;;;;;33.67;30.00;;;;;0.52;100.00;98304.94;4799274;28;103211;-71
2023/04/07 06:28:44;;;;;;;;;29.00;22.33;;;;;0.54;100.00;98307.47;4808350;28;102179;-71
2023/04/07 06:31:11;;;;;;;;;32.67;27.00;;;;;0.63;100.00;98309.25;4802935;28;102520;-72
2023/04/07 06:33:38;;;;;;;;;31.67;23.33;;;;;0.72;100.00;98311.84;4811386;28;109704;-72
2023/04/07 06:36:05;;;;;;;;;32.00;27.33;;;;;0.71;100.00;98296.91;4790018;29;103282;-73
2023/04/07 06:38:32;;;;;;;;;39.67;32.67;;;;;0.74;100.00;98311.72;4798078;29;102197;-71
2023/04/07 06:40:59;;;;;;;;;33.67;28.00;;;;;0.68;100.00;98315.81;4809672;28;102827;-72
2023/04/07 06:43:26;;;;;;;;;34.00;24.67;;;;;0.61;100.00;98298.75;4801627;28;102981;-71
2023/04/07 06:45:53;;;;;;;;;30.33;26.00;;;;;0.73;100.00;98310.03;4800084;28;108944;-72
2023/04/07 06:48:21;;;;;;;;;29.00;28.00;;;;;0.72;100.00;98317.19;4799167;29;102723;-72
2023/04/07 06:50:49;;;;;;;;;29.00;22.00;;;;;0.70;100.00;98305.84;4781574;29;102371;-72
2023/04/07 06:53:16;;;;;;;;;32.33;27.00;;;;;0.73;100.00;98312.69;4807678;28;102412;-72
2023/04/07 06:55:43;;;;;;;;;30.33;28.33;;;;;0.63;100.00;98312.72;4819709;28;105622;-72
2023/04/07 06:58:10;;;;;;;;;31.67;27.67;;;;;0.67;100.00;98311.47;4807003;28;102558;-72
2023/04/07 07:00:37;;;;;;;;;35.67;31.00;;;;;0.52;100.00;98290.81;4805398;28;102493;-72
2023/04/07 07:03:05;;;;;;;;;34.67;30.00;;;;;0.57;100.00;98305.34;4800477;29;102190;-72
2023/04/07 07:05:32;;;;;;;;;27.33;24.00;;;;;0.49;100.00;98291.94;4807874;28;104403;-72
2023/04/07 07:07:59;;;;;;;;;34.67;27.67;;;;;0.55;100.00;98309.97;4804494;28;102350;-72
2023/04/07 07:10:26;;;;;;;;;28.33;26.33;;;;;0.64;100.00;98317.06;4805128;28;102176;-71
2023/04/07 07:12:54;;;;;;;;;30.00;24.67;;;;;0.68;100.00;98315.81;4805521;28;102098;-71
2023/04/07 07:15:21;;;;;;;;;30.00;27.33;;;;;0.56;100.00;98290.38;4797413;28;106156;-72
2023/04/07 07:17:48;;;;;;;;;40.33;26.67;;;;;0.61;100.00;98306.75;4807443;28;102258;-72
2023/04/07 07:20:15;;;;;;;;;32.33;24.33;;;;;0.60;100.00;98302.41;4799740;28;102264;-72
2023/04/07 07:22:42;;;;;;;;;27.67;22.67;;;;;0.83;100.00;98327.66;4795280;28;102445;-72
2023/04/07 07:25:09;;;;;;;;;30.00;24.67;;;;;0.75;100.00;98308.94;4802896;28;104025;-73
2023/04/07 07:27:36;;;;;;;;;35.33;29.00;;;;;0.83;100.00;98326.81;4798347;28;102903;-73
2023/04/07 07:30:05;;;;;;;;;34.67;31.33;;;;;0.77;100.00;98320.25;4804122;29;105156;-73
2023/04/07 07:32:32;;;;;;;;;35.00;27.67;;;;;0.83;100.00;98318.81;4788422;28;102185;-72
2023/04/07 07:34:59;;;;;;;;;36.00;33.33;;;;;0.64;100.00;98277.16;4797002;29;104428;-72
2023/04/07 07:37:26;;;;;;;;;24.67;20.67;;;;;1.08;100.00;98327.97;4806236;29;102901;-72
2023/04/07 07:39:55;;;;;;;;;35.33;28.00;;;;;0.98;100.00;98316.53;4799390;29;102076;-71
2023/04/07 07:42:22;;;;;;;;;33.00;30.33;;;;;0.99;100.00;98326.19;4801806;29;102266;-72
2023/04/07 07:44:49;;;;;;;;;33.33;32.00;;;;;0.94;100.00;98323.97;4818985;28;104065;-71
2023/04/07 07:47:17;;;;;;;;;39.33;33.33;;;;;0.96;100.00;98337.09;4797032;29;102254;-73
2023/04/07 07:49:44;;;;;;;;;32.67;29.67;;;;;0.81;100.00;98318.97;4803700;28;102252;-71
2023/04/07 07:52:11;;;;;;;;;38.00;32.00;;;;;0.94;100.00;98301.84;4769667;29;102128;-70
2023/04/07 07:54:38;;;;;;;;;41.67;30.00;;;;;0.75;100.00;98269.00;4819592;28;104058;-71
2023/04/07 07:57:05;;;;;;;;;36.00;31.00;;;;;0.84;100.00;98275.28;4805758;28;102006;-70
2023/04/07 07:59:32;;;;;;;;;40.33;35.67;;;;;0.89;100.00;98289.81;4797549;29;102233;-71
2023/04/07 08:01:59;;;;;;;;;44.00;35.33;;;;;1.03;100.00;98324.91;4809275;28;102048;-72
2023/04/07 08:04:26;;;;;;;;;41.67;28.00;;;;;1.11;100.00;98320.50;4800552;28;104167;-71
2023/04/07 08:06:54;;;;;;;;;31.67;28.67;;;;;1.17;100.00;98311.09;4813841;28;102212;-71
2023/04/07 08:09:21;;;;;;;;;39.00;34.67;;;;;1.10;100.00;98323.31;4805779;28;102213;-71
2023/04/07 08:11:48;;;;;;;;;40.67;29.33;;;;;0.78;100.00;98274.03;4801685;28;102379;-71
2023/04/07 08:14:15;;;;;;;;;37.33;33.67;;;;;1.01;100.00;98318.88;4817189;28;104363;-71
2023/04/07 08:16:43;;;;;;;;;39.33;31.67;;;;;0.87;100.00;98310.41;4801380;28;102361;-71
2023/04/07 08:19:11;;;;;;;;;38.33;30.33;;;;;1.00;100.00;98322.53;4800013;28;101976;-71
2023/04/07 08:21:38;;;;;;;;;34.00;31.00;;;;;1.20;100.00;98329.44;4801676;29;102591;-70
2023/04/07 08:24:06;;;;;;;;;31.00;25.67;;;;;1.28;100.00;98321.53;4816658;29;104108;-71
2023/04/07 08:26:33;;;;;;;;;31.00;28.67;;;;;1.28;100.00;98316.19;4823792;28;102457;-71
2023/04/07 08:29:00;;;;;;;;;34.00;30.33;;;;;1.27;100.00;98322.50;4801507;28;101898;-71
2023/04/07 08:31:27;;;;;;;;;33.00;29.00;;;;;1.07;100.00;98319.13;4803162;28;102090;-71
2023/04/07 08:33:56;;;;;;;;;45.00;32.67;;;;;1.11;100.00;98319.66;4803436;28;108805;-71
2023/04/07 08:36:26;;;;;;;;;39.00;34.33;;;;;1.03;100.00;98328.41;4796240;28;102237;-71
2023/04/07 08:38:53;;;;;;;;;44.00;39.00;;;;;1.05;100.00;98322.91;4820363;28;111503;-71
2023/04/07 08:41:29;;;;;;;;;36.33;29.00;;;;;1.15;100.00;98326.38;4801571;28;102431;-71
2023/04/07 08:43:57;;;;;;;;;37.00;28.33;;;;;0.99;100.00;98310.22;4802425;29;108570;-71
2023/04/07 08:46:26;;;;;;;;;31.00;25.00;;;;;1.13;100.00;98320.34;4806981;29;102156;-71
2023/04/07 08:48:55;;;;;;;;;42.33;34.00;;;;;1.20;100.00;98322.28;4802664;29;104611;-71
2023/04/07 08:51:32;;;;;;;;;48.00;36.67;;;;;1.11;100.00;98317.00;4807840;28;102314;-73
2023/04/07 08:54:13;;;;;;;;;43.33;34.33;;;;;1.14;100.00;98322.88;4797493;29;108692;-73
2023/04/07 08:56:42;;;;;;;;;35.00;33.67;;;;;1.10;100.00;98321.50;4801761;28;102465;-71
2023/04/07 08:59:14;;;;;;;;;45.33;38.67;;;;;1.07;100.00;98313.81;4804592;28;103073;-71
2023/04/07 09:01:41;;;;;;;;;43.67;33.67;;;;;1.15;100.00;98311.25;4797318;29;103179;-71
2023/04/07 09:04:09;;;;;;;;;43.33;35.00;;;;;1.17;100.00;98303.91;4805993;28;104146;-71
2023/04/07 09:06:37;;;;;;;;;38.00;31.33;;;;;1.32;100.00;98299.78;4798375;28;102033;-72
2023/04/07 09:09:05;;;;;;;;;49.33;33.00;;;;;1.34;100.00;98300.47;4804052;28;102109;-72
2023/04/07 09:11:36;;;;;;;;;47.00;35.00;;;;;1.30;100.00;98311.56;4802213;28;102365;-72
2023/04/07 09:14:03;;;;;;;;;48.67;41.00;;;;;1.35;100.00;98291.47;4795765;29;104130;-74
2023/04/07 09:16:30;;;;;;;;;43.33;39.00;;;;;1.45;100.00;98307.38;4821116;28;102206;-71
2023/04/07 09:18:58;;;;;;;;;50.33;40.00;;;;;1.45;100.00;98304.72;4806608;28;102361;-71
2023/04/07 09:21:28;;;;;;;;;39.67;37.00;;;;;1.44;100.00;98302.22;4816993;29;102261;-71
2023/04/07 09:23:55;;;;;;;;;50.67;40.00;;;;;1.42;100.00;98294.38;4803788;28;108783;-71
2023/04/07 09:26:28;;;;;;;;;52.00;41.00;;;;;1.50;100.00;98289.13;4794837;28;102177;-71
2023/04/07 09:29:00;;;;;;;;;50.33;40.33;;;;;1.46;100.00;98298.41;4808660;29;102113;-72
2023/04/07 09:31:43;;;;;;;;;52.67;38.33;;;;;1.44;100.00;98300.38;4800068;28;101971;-73
2023/04/07 09:34:27;;;;;;;;;47.67;39.67;;;;;1.49;100.00;98308.75;4814157;28;107932;-71
2023/04/07 09:36:56;;;;;;;;;42.67;32.00;;;;;1.48;100.00;98288.47;4796706;29;102520;-71
2023/04/07 09:39:24;;;;;;;;;47.33;33.67;;;;;1.54;100.00;98282.50;4800919;28;102198;-71
2023/04/07 09:41:52;;;;;;;;;50.00;39.33;;;;;1.65;100.00;98294.78;4804280;28;102346;-71
2023/04/07 09:44:21;;;;;;;;;41.67;34.00;;;;;1.70;100.00;98296.00;4797106;29;104118;-70
2023/04/07 09:46:52;;;;;;;;;43.00;33.67;;;;;1.79;100.00;98303.06;4801890;28;102232;-71
2023/04/07 09:49:20;;;;;;;;;38.67;35.00;;;;;1.83;100.00;98313.41;4795439;28;103219;-70
2023/04/07 09:52:06;;;;;;;;;49.67;40.00;;;;;1.85;100.00;98314.94;4800805;29;102171;-70
2023/04/07 09:54:40;;;;;;;;;47.00;36.33;;;;;1.83;100.00;98300.09;4800916;28;108174;-70
2023/04/07 09:57:09;;;;;;;;;51.00;38.67;;;;;1.77;100.00;98312.19;4815394;29;102878;-70
2023/04/07 09:59:38;;;;;;;;;55.00;39.67;;;;;1.60;100.00;98310.38;4811353;28;102536;-70
2023/04/07 10:02:06;;;;;;;;;48.67;42.00;;;;;1.61;100.00;98296.06;4804529;28;102322;-71
2023/04/07 10:04:33;;;;;;;;;47.00;39.00;;;;;1.60;100.00;98310.38;4807857;28;104129;-71
2023/04/07 10:07:02;;;;;;;;;43.33;39.67;;;;;1.56;100.00;98309.00;4807947;28;102087;-74
2023/04/07 10:09:30;;;;;;;;;50.33;40.67;;;;;1.56;100.00;98317.84;4795756;28;102523;-73
2023/04/07 10:11:58;;;;;;;;;41.00;36.67;;;;;1.64;100.00;98309.06;4813358;28;102058;-70
2023/04/07 10:14:30;;;;;;;;;41.00;29.00;;;;;1.77;100.00;98317.53;4806752;29;108057;-70
2023/04/07 10:17:00;;;;;;;;;50.00;39.00;;;;;1.71;100.00;98302.97;4804538;28;102482;-72
2023/04/07 10:19:32;;;;;;;;;44.33;37.67;;;;;1.76;100.00;98314.00;4810402;28;102138;-71
2023/04/07 10:22:01;;;;;;;;;38.00;30.00;;;;;1.68;100.00;98308.63;4796259;28;110105;-71
2023/04/07 10:24:35;;;;;;;;;46.67;36.33;;;;;1.68;100.00;98303.28;4805984;29;108861;-71
2023/04/07 10:27:10;;;;;;;;;43.67;31.67;;;;;1.87;100.00;98320.97;4798859;28;102413;-71
2023/04/07 10:29:42;;;;;;;;;36.67;33.00;;;;;1.97;100.00;98321.72;4806381;28;102024;-71
2023/04/07 10:32:10;;;;;;;;;39.33;30.33;;;;;1.89;100.00;98299.50;4807904;28;102155;-72
2023/04/07 10:34:49;;;;;;;;;50.33;39.67;;;;;1.94;100.00;98311.34;4805880;28;102688;-72
2023/04/07 10:37:19;;;;;;;;;44.33;34.00;;;;;1.93;100.00;98314.19;4804928;28;102128;-71
2023/04/07 10:39:51;;;;;;;;;56.67;43.00;;;;;1.88;100.00;98311.13;4799876;28;102022;-71
2023/04/07 10:42:36;;;;;;;;;45.00;37.33;;;;;1.88;100.00;98306.66;4810162;28;102615;-70
2023/04/07 10:45:05;;;;;;;;;39.67;31.33;;;;;1.90;100.00;98301.13;4798109;28;109069;-70
2023/04/07 10:47:33;;;;;;;;;39.33;32.67;;;;;1.94;100.00;98300.69;4805512;28;102022;-71
2023/04/07 10:50:21;;;;;;;;;41.00;33.33;;;;;1.98;100.00;98309.22;4802337;28;102210;-71
2023/04/07 10:53:03;;;;;;;;;44.67;36.33;;;;;1.84;100.00;98291.09;4799035;28;102416;-71
2023/04/07 10:55:34;;;;;;;;;43.00;36.00;;;;;1.93;100.00;98300.84;4805650;28;108614;-72
2023/04/07 10:58:29;;;;;;;;;38.67;33.67;;;;;1.97;100.00;98307.53;4798613;29;102396;-71
2023/04/07 11:01:05;;;;;;;;;37.00;29.33;;;;;2.16;100.00;98299.38;4801981;28;102311;-71
2023/04/07 11:03:37;;;;;;;;;41.67;32.67;;;;;2.13;100.00;98278.31;4801222;28;102119;-71
2023/04/07 11:06:07;;;;;;;;;30.67;27.33;;;;;2.40;100.00;98294.19;4794793;28;104896;-71
2023/04/07 11:08:36;;;;;;;;;41.67;35.33;;;;;2.31;100.00;98300.47;4807456;28;102460;-71
2023/04/07 11:11:08;;;;;;;;;40.67;36.33;;;;;2.27;100.00;98280.44;4795305;29;102110;-71
2023/04/07 11:13:47;;;;;;;;;32.33;27.33;;;;;2.57;100.00;98279.09;4804199;28;101918;-71
2023/04/07 11:16:17;;;;;;;;;44.67;39.00;;;;;2.35;100.00;98291.16;4797380;28;102958;-71
2023/04/07 11:18:49;;;;;;;;;49.67;37.00;;;;;2.49;100.00;98297.72;4799847;29;103054;-72
2023/04/07 11:21:17;;;;;;;;;46.67;35.33;;;;;2.69;100.00;98299.19;4803145;28;102414;-72